»·PEaware :: N5446F KBFL-KMHV

N5446F :: KBFL-KMHV

FLIGHT INFORMATION

Flight Status: Arrived
Operator: Privately registered:
United States
More flights under this callsign
Pilot: Leith A. (37255)
Aircraft: CESSNA 172 SKYHAWK
(C172)
More flights by this aircraft type
Origin: KBFL Meadows
United States
Destination: KMHV Mojave
United States
More flights between these airports :: More routes between these airports
Route: VFR
File this flight plan on PilotEdge
Remarks:
Altitude:
(Current/Filed)
7,500ft
Speed:
(Current/Filed)
110kts
Departed: 03-Dec-21 08:39 AM
Arrived: 03-Dec-21 09:16 AM
Distance/Time
Traveled:
50nm/0:37
Distance/Time
To Go:
Arrived

Flight Plot

Page will automatically refresh every two minutes.

Flight plan parsing failed; only flown route is shown


Map Options




Map Legend


Flown Route
Filed Route
Departure Airport
Arrival Airport
Navaid (VOR, NDB)
Fix

Horizontal Profiles

Position Reports

Time Latitude Longitude Heading Altitude Ground
Speed
03-Dec-21 08:07 35.430481 -119.047847 142 485ft 0kts
03-Dec-21 08:09 35.430481 -119.047847 142 485ft 0kts
03-Dec-21 08:10 35.430481 -119.047847 142 485ft 0kts
03-Dec-21 08:11 35.430481 -119.047847 142 485ft 0kts
03-Dec-21 08:11 35.430481 -119.047847 142 485ft 0kts
03-Dec-21 08:12 35.430481 -119.047847 142 485ft 0kts
03-Dec-21 08:13 35.430481 -119.047847 142 485ft 0kts
03-Dec-21 08:15 35.430481 -119.047847 142 485ft 0kts
03-Dec-21 08:15 35.430481 -119.047847 142 485ft 0kts
03-Dec-21 08:16 35.430481 -119.047847 142 485ft 0kts
03-Dec-21 08:17 35.430481 -119.047847 142 485ft 0kts
03-Dec-21 08:18 35.430481 -119.047847 142 485ft 0kts
03-Dec-21 08:19 35.430481 -119.047847 142 485ft 0kts
03-Dec-21 08:24 35.430481 -119.047847 142 485ft 0kts
03-Dec-21 08:25 35.430481 -119.047847 142 485ft 0kts
03-Dec-21 08:26 35.430481 -119.047847 142 485ft 0kts
03-Dec-21 08:27 35.430481 -119.047847 142 485ft 0kts
03-Dec-21 08:28 35.429918 -119.048413 235 484ft 0kts
03-Dec-21 08:29 35.427260 -119.045976 134 477ft 19kts
03-Dec-21 08:30 35.425739 -119.044533 235 471ft 0kts
03-Dec-21 08:31 35.425739 -119.044533 235 471ft 0kts
03-Dec-21 08:32 35.425739 -119.044533 235 471ft 0kts
03-Dec-21 08:33 35.425739 -119.044533 235 471ft 0kts
03-Dec-21 08:34 35.425739 -119.044533 235 471ft 0kts
03-Dec-21 08:35 35.425739 -119.044533 235 471ft 0kts
03-Dec-21 08:36 35.425739 -119.044533 235 471ft 0kts
03-Dec-21 08:37 35.425739 -119.044533 235 471ft 0kts
03-Dec-21 08:38 35.428943 -119.050324 313 506ft 71kts
03-Dec-21 08:39 35.444892 -119.070224 307 1268ft 85kts
03-Dec-21 08:40 35.463097 -119.070078 43 2088ft 95kts
03-Dec-21 08:41 35.454536 -119.046012 137 2937ft 89kts
03-Dec-21 08:42 35.436639 -119.025142 129 3721ft 88kts
03-Dec-21 08:43 35.424057 -118.999057 128 4449ft 89kts
03-Dec-21 08:44 35.411860 -118.972365 108 5120ft 91kts
03-Dec-21 08:45 35.405305 -118.942446 118 5819ft 91kts
03-Dec-21 08:46 35.394636 -118.914001 111 6497ft 92kts
03-Dec-21 08:47 35.382120 -118.886239 126 7130ft 93kts
03-Dec-21 08:48 35.364974 -118.860130 119 7525ft 107kts
03-Dec-21 08:49 35.351841 -118.827201 125 7486ft 115kts
03-Dec-21 08:50 35.333218 -118.795292 125 7496ft 116kts
03-Dec-21 08:51 35.313320 -118.764180 129 7501ft 115kts
03-Dec-21 08:52 35.295376 -118.731526 120 7512ft 116kts
03-Dec-21 08:53 35.281384 -118.695928 115 7513ft 116kts
03-Dec-21 08:54 35.266448 -118.660907 111 7498ft 116kts
03-Dec-21 08:55 35.253536 -118.624803 121 7475ft 117kts
03-Dec-21 08:56 35.236101 -118.591498 119 7465ft 116kts
03-Dec-21 08:57 35.224112 -118.555163 109 7451ft 116kts
03-Dec-21 08:58 35.205368 -118.523297 129 7448ft 116kts
03-Dec-21 08:59 35.182673 -118.495768 149 7460ft 115kts
03-Dec-21 09:00 35.158229 -118.470935 128 7442ft 116kts
03-Dec-21 09:01 35.138415 -118.442279 133 7445ft 115kts
03-Dec-21 09:02 35.119769 -118.410748 114 7449ft 114kts
03-Dec-21 09:03 35.107513 -118.374807 115 7450ft 114kts
03-Dec-21 09:04 35.094988 -118.338875 108 7456ft 115kts
03-Dec-21 09:05 35.075396 -118.311052 152 7463ft 112kts
03-Dec-21 09:06 35.045979 -118.297078 156 7453ft 113kts
03-Dec-21 09:07 35.033412 -118.265548 69 6544ft 101kts
03-Dec-21 09:08 35.041878 -118.233778 83 5778ft 105kts
03-Dec-21 09:09 35.061914 -118.210954 334 4805ft 96kts
03-Dec-21 09:10 35.058598 -118.200544 72 3869ft 99kts
03-Dec-21 09:11 35.058418 -118.168903 135 3827ft 99kts
03-Dec-21 09:12 35.037608 -118.145911 141 3896ft 101kts
03-Dec-21 09:13 35.023461 -118.123384 36 3324ft 93kts
03-Dec-21 09:14 35.041256 -118.126759 313 2836ft 68kts
03-Dec-21 09:15 35.051554 -118.139152 313 2724ft 32kts
03-Dec-21 09:16 35.057602 -118.146827 269 2753ft 25kts
03-Dec-21 09:17 35.057198 -118.151380 264 2751ft 0kts
03-Dec-21 09:18 35.057198 -118.151380 264 2751ft 0kts

Navigation Log

Ident Type
Flight plan parsing failed, navigation log unavailable